sensor_id;sensor_type;location;lat;lon;timestamp;P1;durP1;ratioP1;P2;durP2;ratioP2
44766;SDS011;30487;48.716;9.272;2023-07-08T00:00:48;9.35;;;5.43;;
44766;SDS011;30487;48.716;9.272;2023-07-08T00:03:14;11.38;;;5.78;;
44766;SDS011;30487;48.716;9.272;2023-07-08T00:05:40;10.98;;;5.38;;
44766;SDS011;30487;48.716;9.272;2023-07-08T00:08:08;9.25;;;5.05;;
44766;SDS011;30487;48.716;9.272;2023-07-08T00:13:06;11.85;;;5.50;;
44766;SDS011;30487;48.716;9.272;2023-07-08T00:15:33;10.05;;;4.90;;
44766;SDS011;30487;48.716;9.272;2023-07-08T00:17:59;14.52;;;5.30;;
44766;SDS011;30487;48.716;9.272;2023-07-08T00:20:32;10.50;;;5.50;;
44766;SDS011;30487;48.716;9.272;2023-07-08T00:23:01;12.63;;;4.97;;
44766;SDS011;30487;48.716;9.272;2023-07-08T00:25:28;10.80;;;5.45;;
44766;SDS011;30487;48.716;9.272;2023-07-08T00:27:55;8.65;;;4.85;;
44766;SDS011;30487;48.716;9.272;2023-07-08T00:30:31;10.88;;;5.53;;
44766;SDS011;30487;48.716;9.272;2023-07-08T00:32:57;9.27;;;5.22;;
44766;SDS011;30487;48.716;9.272;2023-07-08T00:35:33;13.00;;;4.93;;
44766;SDS011;30487;48.716;9.272;2023-07-08T00:38:02;9.70;;;5.07;;
44766;SDS011;30487;48.716;9.272;2023-07-08T00:40:37;12.68;;;5.47;;
44766;SDS011;30487;48.716;9.272;2023-07-08T00:43:12;13.20;;;5.35;;
44766;SDS011;30487;48.716;9.272;2023-07-08T00:45:40;9.90;;;4.70;;
44766;SDS011;30487;48.716;9.272;2023-07-08T00:48:30;11.32;;;5.40;;
44766;SDS011;30487;48.716;9.272;2023-07-08T00:51:00;12.48;;;5.05;;
44766;SDS011;30487;48.716;9.272;2023-07-08T00:53:30;12.13;;;5.35;;
44766;SDS011;30487;48.716;9.272;2023-07-08T00:55:59;9.63;;;5.70;;
44766;SDS011;30487;48.716;9.272;2023-07-08T00:58:42;10.10;;;5.20;;
44766;SDS011;30487;48.716;9.272;2023-07-08T01:01:14;10.90;;;5.07;;
44766;SDS011;30487;48.716;9.272;2023-07-08T01:03:45;13.02;;;5.28;;
44766;SDS011;30487;48.716;9.272;2023-07-08T01:06:14;11.43;;;5.65;;
44766;SDS011;30487;48.716;9.272;2023-07-08T01:08:41;13.23;;;5.43;;
44766;SDS011;30487;48.716;9.272;2023-07-08T01:11:07;11.55;;;5.72;;
44766;SDS011;30487;48.716;9.272;2023-07-08T01:13:35;13.52;;;5.35;;
44766;SDS011;30487;48.716;9.272;2023-07-08T01:16:05;10.18;;;5.75;;
44766;SDS011;30487;48.716;9.272;2023-07-08T01:18:32;13.48;;;5.63;;
44766;SDS011;30487;48.716;9.272;2023-07-08T01:21:06;10.38;;;5.18;;
44766;SDS011;30487;48.716;9.272;2023-07-08T01:23:55;10.45;;;5.15;;
44766;SDS011;30487;48.716;9.272;2023-07-08T01:26:22;12.02;;;5.45;;
44766;SDS011;30487;48.716;9.272;2023-07-08T01:28:49;10.18;;;5.55;;
44766;SDS011;30487;48.716;9.272;2023-07-08T01:31:16;10.55;;;5.63;;
44766;SDS011;30487;48.716;9.272;2023-07-08T01:33:42;9.45;;;5.32;;
44766;SDS011;30487;48.716;9.272;2023-07-08T01:36:10;10.52;;;5.90;;
44766;SDS011;30487;48.716;9.272;2023-07-08T01:38:36;12.80;;;5.47;;
44766;SDS011;30487;48.716;9.272;2023-07-08T01:41:04;12.98;;;5.85;;
44766;SDS011;30487;48.716;9.272;2023-07-08T01:43:30;9.95;;;4.93;;
44766;SDS011;30487;48.716;9.272;2023-07-08T01:45:57;10.43;;;5.07;;
44766;SDS011;30487;48.716;9.272;2023-07-08T01:48:25;13.13;;;5.43;;
44766;SDS011;30487;48.716;9.272;2023-07-08T01:51:00;9.18;;;5.05;;
44766;SDS011;30487;48.716;9.272;2023-07-08T01:53:31;10.85;;;4.97;;
44766;SDS011;30487;48.716;9.272;2023-07-08T01:55:58;9.18;;;4.80;;
44766;SDS011;30487;48.716;9.272;2023-07-08T01:58:24;9.32;;;5.38;;
44766;SDS011;30487;48.716;9.272;2023-07-08T02:00:50;10.80;;;5.40;;
44766;SDS011;30487;48.716;9.272;2023-07-08T02:03:16;10.23;;;4.82;;
44766;SDS011;30487;48.716;9.272;2023-07-08T02:05:41;10.52;;;5.50;;
44766;SDS011;30487;48.716;9.272;2023-07-08T02:08:07;9.45;;;5.05;;
44766;SDS011;30487;48.716;9.272;2023-07-08T02:10:33;9.00;;;4.95;;
44766;SDS011;30487;48.716;9.272;2023-07-08T02:12:59;12.18;;;5.53;;
44766;SDS011;30487;48.716;9.272;2023-07-08T02:15:25;10.63;;;5.15;;
44766;SDS011;30487;48.716;9.272;2023-07-08T02:17:51;9.48;;;5.15;;
44766;SDS011;30487;48.716;9.272;2023-07-08T02:20:17;9.27;;;5.10;;
44766;SDS011;30487;48.716;9.272;2023-07-08T02:22:43;11.00;;;5.50;;
44766;SDS011;30487;48.716;9.272;2023-07-08T02:25:09;10.55;;;5.55;;
44766;SDS011;30487;48.716;9.272;2023-07-08T02:27:34;9.80;;;4.95;;
44766;SDS011;30487;48.716;9.272;2023-07-08T02:30:01;9.57;;;4.70;;
44766;SDS011;30487;48.716;9.272;2023-07-08T02:32:26;11.30;;;5.35;;
44766;SDS011;30487;48.716;9.272;2023-07-08T02:34:52;11.85;;;5.35;;
44766;SDS011;30487;48.716;9.272;2023-07-08T02:37:18;10.70;;;5.05;;
44766;SDS011;30487;48.716;9.272;2023-07-08T02:39:43;9.32;;;5.13;;
44766;SDS011;30487;48.716;9.272;2023-07-08T02:42:09;20.08;;;8.25;;
44766;SDS011;30487;48.716;9.272;2023-07-08T02:44:34;17.15;;;7.45;;
44766;SDS011;30487;48.716;9.272;2023-07-08T02:47:00;10.38;;;5.40;;
44766;SDS011;30487;48.716;9.272;2023-07-08T02:49:25;10.02;;;5.45;;
44766;SDS011;30487;48.716;9.272;2023-07-08T02:51:51;11.63;;;5.93;;
44766;SDS011;30487;48.716;9.272;2023-07-08T02:54:17;10.88;;;5.65;;
44766;SDS011;30487;48.716;9.272;2023-07-08T02:56:43;12.75;;;5.45;;
44766;SDS011;30487;48.716;9.272;2023-07-08T02:59:08;12.73;;;6.20;;
44766;SDS011;30487;48.716;9.272;2023-07-08T03:01:34;10.13;;;5.03;;
44766;SDS011;30487;48.716;9.272;2023-07-08T03:04:06;10.63;;;5.30;;
44766;SDS011;30487;48.716;9.272;2023-07-08T03:06:33;10.25;;;5.00;;
44766;SDS011;30487;48.716;9.272;2023-07-08T03:08:59;9.95;;;5.30;;
44766;SDS011;30487;48.716;9.272;2023-07-08T03:11:25;11.02;;;5.50;;
44766;SDS011;30487;48.716;9.272;2023-07-08T03:13:50;10.55;;;5.55;;
44766;SDS011;30487;48.716;9.272;2023-07-08T03:16:16;8.95;;;4.97;;
44766;SDS011;30487;48.716;9.272;2023-07-08T03:18:41;8.88;;;5.00;;
44766;SDS011;30487;48.716;9.272;2023-07-08T03:21:12;11.65;;;5.22;;
44766;SDS011;30487;48.716;9.272;2023-07-08T03:23:40;11.30;;;5.35;;
44766;SDS011;30487;48.716;9.272;2023-07-08T03:26:05;10.98;;;5.10;;
44766;SDS011;30487;48.716;9.272;2023-07-08T03:28:31;9.68;;;5.00;;
44766;SDS011;30487;48.716;9.272;2023-07-08T03:30:57;12.93;;;4.97;;
44766;SDS011;30487;48.716;9.272;2023-07-08T03:33:22;10.05;;;5.13;;
44766;SDS011;30487;48.716;9.272;2023-07-08T03:35:49;9.73;;;5.30;;
44766;SDS011;30487;48.716;9.272;2023-07-08T03:38:15;9.73;;;5.28;;
44766;SDS011;30487;48.716;9.272;2023-07-08T03:40:44;10.82;;;5.05;;
44766;SDS011;30487;48.716;9.272;2023-07-08T03:43:09;14.02;;;5.80;;
44766;SDS011;30487;48.716;9.272;2023-07-08T03:45:35;11.20;;;5.28;;
44766;SDS011;30487;48.716;9.272;2023-07-08T03:48:00;8.75;;;4.63;;
44766;SDS011;30487;48.716;9.272;2023-07-08T03:50:26;10.38;;;5.30;;
44766;SDS011;30487;48.716;9.272;2023-07-08T03:52:52;10.10;;;5.43;;
44766;SDS011;30487;48.716;9.272;2023-07-08T03:55:19;11.35;;;5.22;;
44766;SDS011;30487;48.716;9.272;2023-07-08T03:57:45;9.20;;;4.70;;
44766;SDS011;30487;48.716;9.272;2023-07-08T04:00:11;8.77;;;5.20;;
44766;SDS011;30487;48.716;9.272;2023-07-08T04:02:44;12.13;;;5.40;;
44766;SDS011;30487;48.716;9.272;2023-07-08T04:07:44;10.35;;;5.38;;
44766;SDS011;30487;48.716;9.272;2023-07-08T04:10:10;8.82;;;4.70;;
44766;SDS011;30487;48.716;9.272;2023-07-08T04:12:37;11.45;;;4.78;;
44766;SDS011;30487;48.716;9.272;2023-07-08T04:15:03;11.98;;;5.18;;
44766;SDS011;30487;48.716;9.272;2023-07-08T04:17:30;10.85;;;4.93;;
44766;SDS011;30487;48.716;9.272;2023-07-08T04:19:55;10.57;;;4.95;;
44766;SDS011;30487;48.716;9.272;2023-07-08T04:22:21;14.52;;;5.05;;
44766;SDS011;30487;48.716;9.272;2023-07-08T04:24:47;10.40;;;5.28;;
44766;SDS011;30487;48.716;9.272;2023-07-08T04:27:16;9.75;;;5.25;;
44766;SDS011;30487;48.716;9.272;2023-07-08T04:29:43;13.32;;;5.78;;
44766;SDS011;30487;48.716;9.272;2023-07-08T04:32:09;10.95;;;5.10;;
44766;SDS011;30487;48.716;9.272;2023-07-08T04:34:34;12.02;;;5.03;;
44766;SDS011;30487;48.716;9.272;2023-07-08T04:37:00;9.85;;;5.20;;
44766;SDS011;30487;48.716;9.272;2023-07-08T04:39:26;10.52;;;5.20;;
44766;SDS011;30487;48.716;9.272;2023-07-08T04:41:52;11.13;;;5.25;;
44766;SDS011;30487;48.716;9.272;2023-07-08T04:44:18;11.57;;;5.38;;
44766;SDS011;30487;48.716;9.272;2023-07-08T04:49:12;10.60;;;5.43;;
44766;SDS011;30487;48.716;9.272;2023-07-08T04:51:38;8.18;;;4.85;;
44766;SDS011;30487;48.716;9.272;2023-07-08T04:54:05;11.63;;;5.50;;
44766;SDS011;30487;48.716;9.272;2023-07-08T04:56:35;11.07;;;4.95;;
44766;SDS011;30487;48.716;9.272;2023-07-08T04:59:07;12.65;;;5.47;;
44766;SDS011;30487;48.716;9.272;2023-07-08T05:01:34;9.52;;;5.03;;
44766;SDS011;30487;48.716;9.272;2023-07-08T05:04:00;8.70;;;4.72;;
44766;SDS011;30487;48.716;9.272;2023-07-08T05:06:27;12.07;;;5.22;;
44766;SDS011;30487;48.716;9.272;2023-07-08T05:08:53;7.70;;;4.75;;
44766;SDS011;30487;48.716;9.272;2023-07-08T05:11:18;11.27;;;5.05;;
44766;SDS011;30487;48.716;9.272;2023-07-08T05:13:44;10.75;;;4.90;;
44766;SDS011;30487;48.716;9.272;2023-07-08T05:16:09;12.27;;;5.32;;
44766;SDS011;30487;48.716;9.272;2023-07-08T05:18:35;10.35;;;5.22;;
44766;SDS011;30487;48.716;9.272;2023-07-08T05:21:01;13.02;;;5.15;;
44766;SDS011;30487;48.716;9.272;2023-07-08T05:23:27;11.40;;;5.32;;
44766;SDS011;30487;48.716;9.272;2023-07-08T05:25:53;12.00;;;5.70;;
44766;SDS011;30487;48.716;9.272;2023-07-08T05:28:19;10.60;;;5.55;;
44766;SDS011;30487;48.716;9.272;2023-07-08T05:30:46;12.07;;;5.53;;
44766;SDS011;30487;48.716;9.272;2023-07-08T05:33:12;10.63;;;5.63;;
44766;SDS011;30487;48.716;9.272;2023-07-08T05:35:38;9.68;;;5.18;;
44766;SDS011;30487;48.716;9.272;2023-07-08T05:38:03;10.38;;;4.93;;
44766;SDS011;30487;48.716;9.272;2023-07-08T05:40:29;12.15;;;5.05;;
44766;SDS011;30487;48.716;9.272;2023-07-08T05:42:55;11.07;;;5.07;;
44766;SDS011;30487;48.716;9.272;2023-07-08T05:45:20;14.18;;;5.05;;
44766;SDS011;30487;48.716;9.272;2023-07-08T05:47:46;11.90;;;5.20;;
44766;SDS011;30487;48.716;9.272;2023-07-08T05:50:11;13.20;;;4.72;;
44766;SDS011;30487;48.716;9.272;2023-07-08T05:52:37;9.07;;;5.20;;
44766;SDS011;30487;48.716;9.272;2023-07-08T05:55:04;14.52;;;5.57;;
44766;SDS011;30487;48.716;9.272;2023-07-08T05:57:30;12.43;;;5.63;;
44766;SDS011;30487;48.716;9.272;2023-07-08T05:59:55;10.90;;;4.68;;
44766;SDS011;30487;48.716;9.272;2023-07-08T06:02:21;10.68;;;5.65;;
44766;SDS011;30487;48.716;9.272;2023-07-08T06:04:48;9.95;;;5.18;;
44766;SDS011;30487;48.716;9.272;2023-07-08T06:07:14;9.18;;;5.28;;
44766;SDS011;30487;48.716;9.272;2023-07-08T06:09:39;12.57;;;5.80;;
44766;SDS011;30487;48.716;9.272;2023-07-08T06:12:05;12.70;;;5.38;;
44766;SDS011;30487;48.716;9.272;2023-07-08T06:14:31;12.55;;;5.35;;
44766;SDS011;30487;48.716;9.272;2023-07-08T06:16:57;10.57;;;5.25;;
44766;SDS011;30487;48.716;9.272;2023-07-08T06:19:23;16.63;;;5.50;;
44766;SDS011;30487;48.716;9.272;2023-07-08T06:21:49;9.50;;;5.10;;
44766;SDS011;30487;48.716;9.272;2023-07-08T06:24:15;10.82;;;5.25;;
44766;SDS011;30487;48.716;9.272;2023-07-08T06:26:40;9.50;;;5.10;;
44766;SDS011;30487;48.716;9.272;2023-07-08T06:29:06;11.65;;;5.63;;
44766;SDS011;30487;48.716;9.272;2023-07-08T06:31:31;13.60;;;5.70;;
44766;SDS011;30487;48.716;9.272;2023-07-08T06:33:57;10.90;;;5.15;;
44766;SDS011;30487;48.716;9.272;2023-07-08T06:36:23;8.98;;;4.95;;
44766;SDS011;30487;48.716;9.272;2023-07-08T06:38:49;10.10;;;5.22;;
44766;SDS011;30487;48.716;9.272;2023-07-08T06:41:14;10.77;;;5.25;;
44766;SDS011;30487;48.716;9.272;2023-07-08T06:43:40;10.30;;;5.20;;
44766;SDS011;30487;48.716;9.272;2023-07-08T06:46:05;12.43;;;5.38;;
44766;SDS011;30487;48.716;9.272;2023-07-08T06:48:31;9.82;;;5.47;;
44766;SDS011;30487;48.716;9.272;2023-07-08T06:50:57;11.73;;;5.15;;
44766;SDS011;30487;48.716;9.272;2023-07-08T06:53:23;11.25;;;5.10;;
44766;SDS011;30487;48.716;9.272;2023-07-08T06:55:49;11.93;;;5.65;;
44766;SDS011;30487;48.716;9.272;2023-07-08T06:58:14;11.95;;;5.45;;
44766;SDS011;30487;48.716;9.272;2023-07-08T07:00:43;15.45;;;5.70;;
44766;SDS011;30487;48.716;9.272;2023-07-08T07:03:10;12.80;;;5.47;;
44766;SDS011;30487;48.716;9.272;2023-07-08T07:05:37;23.30;;;5.80;;
44766;SDS011;30487;48.716;9.272;2023-07-08T07:08:03;11.68;;;5.38;;
44766;SDS011;30487;48.716;9.272;2023-07-08T07:10:29;13.73;;;5.57;;
44766;SDS011;30487;48.716;9.272;2023-07-08T07:12:55;11.30;;;6.00;;
44766;SDS011;30487;48.716;9.272;2023-07-08T07:15:21;9.68;;;5.15;;
44766;SDS011;30487;48.716;9.272;2023-07-08T07:17:46;13.65;;;6.50;;
44766;SDS011;30487;48.716;9.272;2023-07-08T07:20:12;12.05;;;5.35;;
44766;SDS011;30487;48.716;9.272;2023-07-08T07:22:38;11.48;;;5.45;;
44766;SDS011;30487;48.716;9.272;2023-07-08T07:25:03;12.20;;;5.10;;
44766;SDS011;30487;48.716;9.272;2023-07-08T07:27:30;10.02;;;5.00;;
44766;SDS011;30487;48.716;9.272;2023-07-08T07:29:55;10.65;;;5.22;;
44766;SDS011;30487;48.716;9.272;2023-07-08T07:32:24;15.27;;;5.38;;
44766;SDS011;30487;48.716;9.272;2023-07-08T07:34:50;10.20;;;4.68;;
44766;SDS011;30487;48.716;9.272;2023-07-08T07:37:16;17.00;;;5.05;;
44766;SDS011;30487;48.716;9.272;2023-07-08T07:39:43;10.35;;;5.10;;
44766;SDS011;30487;48.716;9.272;2023-07-08T07:42:09;16.83;;;5.57;;
44766;SDS011;30487;48.716;9.272;2023-07-08T07:44:35;12.50;;;4.53;;
44766;SDS011;30487;48.716;9.272;2023-07-08T07:47:03;9.85;;;4.85;;
44766;SDS011;30487;48.716;9.272;2023-07-08T07:49:29;9.40;;;4.80;;
44766;SDS011;30487;48.716;9.272;2023-07-08T07:51:54;7.93;;;4.80;;
44766;SDS011;30487;48.716;9.272;2023-07-08T07:54:20;9.48;;;4.40;;
44766;SDS011;30487;48.716;9.272;2023-07-08T07:56:46;9.40;;;5.05;;
44766;SDS011;30487;48.716;9.272;2023-07-08T07:59:11;10.55;;;4.60;;
44766;SDS011;30487;48.716;9.272;2023-07-08T08:01:37;11.18;;;4.55;;
44766;SDS011;30487;48.716;9.272;2023-07-08T08:04:03;12.27;;;4.72;;
44766;SDS011;30487;48.716;9.272;2023-07-08T08:06:29;10.38;;;4.55;;
44766;SDS011;30487;48.716;9.272;2023-07-08T08:08:54;11.73;;;4.93;;
44766;SDS011;30487;48.716;9.272;2023-07-08T08:11:21;13.25;;;4.90;;
44766;SDS011;30487;48.716;9.272;2023-07-08T08:13:47;9.13;;;4.47;;
44766;SDS011;30487;48.716;9.272;2023-07-08T08:16:12;9.63;;;4.70;;
44766;SDS011;30487;48.716;9.272;2023-07-08T08:18:38;8.82;;;4.35;;
44766;SDS011;30487;48.716;9.272;2023-07-08T08:21:03;9.73;;;4.40;;
44766;SDS011;30487;48.716;9.272;2023-07-08T08:23:29;9.63;;;4.47;;
44766;SDS011;30487;48.716;9.272;2023-07-08T08:25:54;12.32;;;4.70;;
44766;SDS011;30487;48.716;9.272;2023-07-08T08:28:20;10.45;;;4.35;;
44766;SDS011;30487;48.716;9.272;2023-07-08T08:30:49;8.98;;;4.38;;
44766;SDS011;30487;48.716;9.272;2023-07-08T08:33:15;10.55;;;4.70;;
44766;SDS011;30487;48.716;9.272;2023-07-08T08:35:42;8.25;;;4.25;;
44766;SDS011;30487;48.716;9.272;2023-07-08T08:38:08;8.48;;;4.35;;
44766;SDS011;30487;48.716;9.272;2023-07-08T08:40:33;8.40;;;4.38;;
44766;SDS011;30487;48.716;9.272;2023-07-08T08:43:03;8.18;;;4.22;;
44766;SDS011;30487;48.716;9.272;2023-07-08T08:45:56;9.55;;;4.60;;
44766;SDS011;30487;48.716;9.272;2023-07-08T08:48:26;8.13;;;4.20;;
44766;SDS011;30487;48.716;9.272;2023-07-08T08:51:14;9.20;;;5.00;;
44766;SDS011;30487;48.716;9.272;2023-07-08T08:53:41;9.77;;;4.32;;
44766;SDS011;30487;48.716;9.272;2023-07-08T08:58:40;10.15;;;4.60;;
44766;SDS011;30487;48.716;9.272;2023-07-08T09:01:12;11.55;;;3.92;;
44766;SDS011;30487;48.716;9.272;2023-07-08T09:06:29;10.25;;;3.97;;
44766;SDS011;30487;48.716;9.272;2023-07-08T09:09:00;13.05;;;4.10;;
44766;SDS011;30487;48.716;9.272;2023-07-08T09:11:39;7.07;;;3.67;;
44766;SDS011;30487;48.716;9.272;2023-07-08T09:14:28;9.82;;;3.80;;
44766;SDS011;30487;48.716;9.272;2023-07-08T09:22:41;8.38;;;3.90;;
44766;SDS011;30487;48.716;9.272;2023-07-08T09:27:53;7.05;;;3.63;;
44766;SDS011;30487;48.716;9.272;2023-07-08T09:30:20;7.30;;;3.00;;
44766;SDS011;30487;48.716;9.272;2023-07-08T09:32:47;5.68;;;3.22;;
44766;SDS011;30487;48.716;9.272;2023-07-08T09:35:17;8.93;;;3.40;;
44766;SDS011;30487;48.716;9.272;2023-07-08T09:37:45;9.57;;;3.38;;
44766;SDS011;30487;48.716;9.272;2023-07-08T09:42:48;7.18;;;3.28;;
44766;SDS011;30487;48.716;9.272;2023-07-08T09:45:18;8.35;;;3.72;;
44766;SDS011;30487;48.716;9.272;2023-07-08T09:50:19;5.60;;;2.95;;
44766;SDS011;30487;48.716;9.272;2023-07-08T09:52:48;7.28;;;3.92;;
44766;SDS011;30487;48.716;9.272;2023-07-08T09:55:15;7.35;;;3.80;;
44766;SDS011;30487;48.716;9.272;2023-07-08T09:57:41;9.23;;;3.70;;
44766;SDS011;30487;48.716;9.272;2023-07-08T10:00:14;6.78;;;3.67;;
44766;SDS011;30487;48.716;9.272;2023-07-08T10:05:14;13.63;;;3.90;;
44766;SDS011;30487;48.716;9.272;2023-07-08T10:07:47;6.95;;;3.22;;
44766;SDS011;30487;48.716;9.272;2023-07-08T10:10:17;8.10;;;4.03;;
44766;SDS011;30487;48.716;9.272;2023-07-08T10:12:55;6.28;;;2.83;;
44766;SDS011;30487;48.716;9.272;2023-07-08T10:15:32;9.00;;;3.25;;
44766;SDS011;30487;48.716;9.272;2023-07-08T10:18:04;6.97;;;3.28;;
44766;SDS011;30487;48.716;9.272;2023-07-08T10:20:38;6.20;;;3.25;;
44766;SDS011;30487;48.716;9.272;2023-07-08T10:23:18;9.20;;;3.30;;
44766;SDS011;30487;48.716;9.272;2023-07-08T10:26:25;4.67;;;2.57;;
44766;SDS011;30487;48.716;9.272;2023-07-08T10:32:03;6.95;;;3.00;;
44766;SDS011;30487;48.716;9.272;2023-07-08T10:48:56;4.95;;;2.63;;
44766;SDS011;30487;48.716;9.272;2023-07-08T10:51:51;6.97;;;2.42;;
44766;SDS011;30487;48.716;9.272;2023-07-08T11:05:46;7.28;;;2.30;;
44766;SDS011;30487;48.716;9.272;2023-07-08T11:08:35;5.22;;;2.30;;
44766;SDS011;30487;48.716;9.272;2023-07-08T11:11:08;5.03;;;2.30;;
44766;SDS011;30487;48.716;9.272;2023-07-08T11:13:53;8.90;;;3.17;;
44766;SDS011;30487;48.716;9.272;2023-07-08T11:16:29;6.10;;;2.60;;
44766;SDS011;30487;48.716;9.272;2023-07-08T11:19:04;5.32;;;2.58;;
44766;SDS011;30487;48.716;9.272;2023-07-08T11:21:58;3.85;;;2.10;;
44766;SDS011;30487;48.716;9.272;2023-07-08T11:24:28;4.15;;;2.13;;
44766;SDS011;30487;48.716;9.272;2023-07-08T11:27:02;6.43;;;2.42;;
44766;SDS011;30487;48.716;9.272;2023-07-08T11:32:01;4.32;;;2.00;;
44766;SDS011;30487;48.716;9.272;2023-07-08T11:34:29;4.47;;;2.17;;
44766;SDS011;30487;48.716;9.272;2023-07-08T11:36:55;7.45;;;2.30;;
44766;SDS011;30487;48.716;9.272;2023-07-08T11:42:42;6.82;;;2.10;;
44766;SDS011;30487;48.716;9.272;2023-07-08T11:47:47;5.80;;;2.30;;
44766;SDS011;30487;48.716;9.272;2023-07-08T11:50:31;4.65;;;2.15;;
44766;SDS011;30487;48.716;9.272;2023-07-08T11:53:03;4.05;;;2.30;;
44766;SDS011;30487;48.716;9.272;2023-07-08T11:55:47;4.85;;;2.00;;
44766;SDS011;30487;48.716;9.272;2023-07-08T11:58:22;6.78;;;2.30;;
44766;SDS011;30487;48.716;9.272;2023-07-08T12:00:59;4.18;;;1.90;;
44766;SDS011;30487;48.716;9.272;2023-07-08T12:03:41;4.25;;;2.30;;
44766;SDS011;30487;48.716;9.272;2023-07-08T12:06:47;3.72;;;2.05;;
44766;SDS011;30487;48.716;9.272;2023-07-08T12:09:25;4.65;;;1.98;;
44766;SDS011;30487;48.716;9.272;2023-07-08T12:11:57;3.67;;;2.00;;
44766;SDS011;30487;48.716;9.272;2023-07-08T12:14:40;8.57;;;1.95;;
44766;SDS011;30487;48.716;9.272;2023-07-08T12:17:09;4.80;;;2.20;;
44766;SDS011;30487;48.716;9.272;2023-07-08T12:19:37;4.28;;;2.10;;
44766;SDS011;30487;48.716;9.272;2023-07-08T12:22:07;6.78;;;1.95;;
44766;SDS011;30487;48.716;9.272;2023-07-08T12:24:34;6.03;;;1.88;;
44766;SDS011;30487;48.716;9.272;2023-07-08T12:27:00;3.60;;;1.85;;
44766;SDS011;30487;48.716;9.272;2023-07-08T12:29:25;3.08;;;1.80;;
44766;SDS011;30487;48.716;9.272;2023-07-08T12:31:51;4.10;;;1.90;;
44766;SDS011;30487;48.716;9.272;2023-07-08T12:34:26;5.07;;;2.20;;
44766;SDS011;30487;48.716;9.272;2023-07-08T12:36:53;3.47;;;1.65;;
44766;SDS011;30487;48.716;9.272;2023-07-08T12:39:19;4.40;;;2.20;;
44766;SDS011;30487;48.716;9.272;2023-07-08T12:41:45;4.93;;;1.88;;
44766;SDS011;30487;48.716;9.272;2023-07-08T12:44:17;4.20;;;1.80;;
44766;SDS011;30487;48.716;9.272;2023-07-08T12:46:45;3.63;;;1.88;;
44766;SDS011;30487;48.716;9.272;2023-07-08T12:49:13;6.28;;;2.20;;
44766;SDS011;30487;48.716;9.272;2023-07-08T12:51:41;4.32;;;2.15;;
44766;SDS011;30487;48.716;9.272;2023-07-08T12:54:08;6.03;;;2.20;;
44766;SDS011;30487;48.716;9.272;2023-07-08T12:56:35;4.57;;;2.10;;
44766;SDS011;30487;48.716;9.272;2023-07-08T12:59:01;4.63;;;2.15;;
44766;SDS011;30487;48.716;9.272;2023-07-08T13:01:28;3.58;;;1.73;;
44766;SDS011;30487;48.716;9.272;2023-07-08T13:03:56;6.45;;;2.03;;
44766;SDS011;30487;48.716;9.272;2023-07-08T13:06:28;6.60;;;1.85;;
44766;SDS011;30487;48.716;9.272;2023-07-08T13:08:57;4.55;;;1.90;;
44766;SDS011;30487;48.716;9.272;2023-07-08T13:11:30;3.72;;;1.73;;
44766;SDS011;30487;48.716;9.272;2023-07-08T13:13:57;3.97;;;1.50;;
44766;SDS011;30487;48.716;9.272;2023-07-08T13:16:30;4.93;;;1.88;;
44766;SDS011;30487;48.716;9.272;2023-07-08T13:18:58;4.28;;;1.95;;
44766;SDS011;30487;48.716;9.272;2023-07-08T13:21:25;3.58;;;1.88;;
44766;SDS011;30487;48.716;9.272;2023-07-08T13:23:52;4.10;;;1.90;;
44766;SDS011;30487;48.716;9.272;2023-07-08T13:26:20;5.05;;;2.28;;
44766;SDS011;30487;48.716;9.272;2023-07-08T13:28:48;3.58;;;1.98;;
44766;SDS011;30487;48.716;9.272;2023-07-08T13:33:45;5.45;;;2.10;;
44766;SDS011;30487;48.716;9.272;2023-07-08T13:36:12;8.32;;;2.13;;
44766;SDS011;30487;48.716;9.272;2023-07-08T13:38:41;6.03;;;2.40;;
44766;SDS011;30487;48.716;9.272;2023-07-08T13:41:07;4.30;;;1.98;;
44766;SDS011;30487;48.716;9.272;2023-07-08T13:43:35;3.25;;;2.05;;
44766;SDS011;30487;48.716;9.272;2023-07-08T13:46:02;3.90;;;2.10;;
44766;SDS011;30487;48.716;9.272;2023-07-08T13:53:43;5.35;;;2.28;;
44766;SDS011;30487;48.716;9.272;2023-07-08T13:56:18;10.93;;;2.38;;
44766;SDS011;30487;48.716;9.272;2023-07-08T13:58:46;4.93;;;2.00;;
44766;SDS011;30487;48.716;9.272;2023-07-08T14:01:18;4.95;;;2.03;;
44766;SDS011;30487;48.716;9.272;2023-07-08T14:03:48;5.75;;;2.05;;
44766;SDS011;30487;48.716;9.272;2023-07-08T14:06:15;4.43;;;1.90;;
44766;SDS011;30487;48.716;9.272;2023-07-08T14:08:45;4.15;;;2.30;;
44766;SDS011;30487;48.716;9.272;2023-07-08T14:11:11;3.78;;;2.10;;
44766;SDS011;30487;48.716;9.272;2023-07-08T14:13:36;3.50;;;2.10;;
44766;SDS011;30487;48.716;9.272;2023-07-08T14:16:02;5.05;;;2.10;;
44766;SDS011;30487;48.716;9.272;2023-07-08T14:18:31;6.95;;;2.67;;
44766;SDS011;30487;48.716;9.272;2023-07-08T14:20:57;4.70;;;2.08;;
44766;SDS011;30487;48.716;9.272;2023-07-08T14:23:23;4.93;;;2.30;;
44766;SDS011;30487;48.716;9.272;2023-07-08T14:25:49;4.00;;;2.30;;
44766;SDS011;30487;48.716;9.272;2023-07-08T14:28:14;4.93;;;2.35;;
44766;SDS011;30487;48.716;9.272;2023-07-08T14:30:44;6.53;;;2.10;;
44766;SDS011;30487;48.716;9.272;2023-07-08T14:33:12;7.20;;;2.63;;
44766;SDS011;30487;48.716;9.272;2023-07-08T14:35:38;7.43;;;2.45;;
44766;SDS011;30487;48.716;9.272;2023-07-08T14:38:11;6.00;;;2.58;;
44766;SDS011;30487;48.716;9.272;2023-07-08T14:40:38;6.47;;;2.25;;
44766;SDS011;30487;48.716;9.272;2023-07-08T14:43:06;5.43;;;2.60;;
44766;SDS011;30487;48.716;9.272;2023-07-08T14:45:41;4.78;;;2.20;;
44766;SDS011;30487;48.716;9.272;2023-07-08T14:48:14;4.32;;;2.28;;
44766;SDS011;30487;48.716;9.272;2023-07-08T14:50:39;7.43;;;2.10;;
44766;SDS011;30487;48.716;9.272;2023-07-08T14:53:05;3.40;;;1.92;;
44766;SDS011;30487;48.716;9.272;2023-07-08T14:55:31;3.45;;;2.05;;
44766;SDS011;30487;48.716;9.272;2023-07-08T14:57:58;6.32;;;2.10;;
44766;SDS011;30487;48.716;9.272;2023-07-08T15:00:24;5.00;;;2.40;;
44766;SDS011;30487;48.716;9.272;2023-07-08T15:02:50;5.78;;;2.30;;
44766;SDS011;30487;48.716;9.272;2023-07-08T15:05:24;5.50;;;2.58;;
44766;SDS011;30487;48.716;9.272;2023-07-08T15:07:55;3.65;;;1.92;;
44766;SDS011;30487;48.716;9.272;2023-07-08T15:10:23;3.75;;;1.85;;
44766;SDS011;30487;48.716;9.272;2023-07-08T15:12:51;4.82;;;2.05;;
44766;SDS011;30487;48.716;9.272;2023-07-08T15:15:21;4.65;;;1.90;;
44766;SDS011;30487;48.716;9.272;2023-07-08T15:17:52;5.00;;;1.90;;
44766;SDS011;30487;48.716;9.272;2023-07-08T15:20:18;4.18;;;2.17;;
44766;SDS011;30487;48.716;9.272;2023-07-08T15:22:44;5.40;;;2.15;;
44766;SDS011;30487;48.716;9.272;2023-07-08T15:25:11;3.55;;;1.85;;
44766;SDS011;30487;48.716;9.272;2023-07-08T15:27:39;3.13;;;1.80;;
44766;SDS011;30487;48.716;9.272;2023-07-08T15:30:13;4.30;;;2.13;;
44766;SDS011;30487;48.716;9.272;2023-07-08T15:32:41;4.90;;;1.92;;
44766;SDS011;30487;48.716;9.272;2023-07-08T15:35:10;5.85;;;2.15;;
44766;SDS011;30487;48.716;9.272;2023-07-08T15:37:41;3.90;;;2.05;;
44766;SDS011;30487;48.716;9.272;2023-07-08T15:40:08;3.85;;;1.88;;
44766;SDS011;30487;48.716;9.272;2023-07-08T15:42:37;4.15;;;1.98;;
44766;SDS011;30487;48.716;9.272;2023-07-08T15:45:35;6.57;;;2.17;;
44766;SDS011;30487;48.716;9.272;2023-07-08T15:47:57;5.95;;;2.08;;
44766;SDS011;30487;48.716;9.272;2023-07-08T15:50:24;4.78;;;1.77;;
44766;SDS011;30487;48.716;9.272;2023-07-08T15:52:51;9.73;;;2.38;;
44766;SDS011;30487;48.716;9.272;2023-07-08T15:55:26;9.18;;;2.03;;
44766;SDS011;30487;48.716;9.272;2023-07-08T15:57:56;4.70;;;1.88;;
44766;SDS011;30487;48.716;9.272;2023-07-08T16:00:29;5.35;;;1.70;;
44766;SDS011;30487;48.716;9.272;2023-07-08T16:03:00;5.68;;;2.17;;